USCCUNNT

Guest
Details From USCC - Balandino
To UNNT - Novosibirsk Tolmachevo
Flight Number -
Tags Generated
Created
Modified
Stats Distance 723 nm / 1,339 km
Max Altitude 0 ft / 0 m
Waypoints 4
Social Downloads 2
Likes 0
Share VATSIM

Download

Looking for another format? Having issues loading an existing format? Contact us
Advertisement - Login to hide

Notes

Generated

Route

USCC ABALI RO3TU UNNT

ID Type Via Altitude Latitude Longitude Leg Dist Tot Dist Heading (true) Name
O USCC APT - 0 ft / 0 m 55.30921˚ 61.47889˚ - 0 nm - -
ABALI FIX - 0 ft / 0 m 55.54500˚ 68.02167˚ 223 nm 223 nm 84° / 89° -
RO3TU FIX - 0 ft / 0 m 55.04167˚ 82.29667˚ 488 nm 711 nm 88° / 99° -
O UNNT APT - 0 ft / 0 m 55.01130˚ 82.62816˚ 11 nm 723 nm 99° / 99° -

Altitude Profile

Advertisement - Login to hide

Weather


0- 5 10 15 20 25 30 35+ Temperature / ° C

Clouds and Precipitation
Forecast for 2017-12-18 12:00 UTC. Updated 2 hours ago

Ground ~20,000 ft ~40,000 ft Winds

USCC

Details ICAO USCC (CEK)
Name BALANDINO
Region Russia
Timezone Asia/Yekaterinburg (UTC+5.0)
Stats Elevation 769 ft / 234 m (AMSL)
Location 55.305843° 61.503320°
Runways 1
Magnetic Variation 13.794° E

METAR

USCC 181100Z 13002MPS 6000 NSC M11/M17 Q1037 R27/000060 NOSIG RMK QFE757

Decode

TAF

TAF USCC 180800Z 1809/1909 13003MPS 3100 BR FU SCT040 TEMPO 1809/1815 35003MPS

Decode

Departure Runways

ID Width Length Bearing (true) Bearing (mag) Surface Threshold Offset Overrun Length
09 197 ft / 60 m 10,443 ft / 3,183 m 103.59° 89.80° Concrete 0 ft / 0 m 230 ft / 70 m
27 197 ft / 60 m 10,443 ft / 3,183 m 283.63° 269.84° Concrete 0 ft / 0 m 230 ft / 70 m

UNNT

Details ICAO UNNT (OVB)
Name Novosibirsk Tolmachevo
Region Russia
Timezone Asia/Novosibirsk (UTC+7.0)
Stats Elevation 365 ft / 111 m (AMSL)
Location 55.013017° 82.651065°
Runways 2
Magnetic Variation 8.864° E

METAR

UNNT 181100Z 17002MPS 7000 NSC M20/M22 Q1045 R25/810160 R34/810160 NOSIG RMK QFE774/1032

Decode

TAF

TAF UNNT 180800Z 1809/1909 18003G08MPS CAVOK

Decode

Destination Runways

ID Width Length Bearing (true) Bearing (mag) Surface Threshold Offset Overrun Length
07 190 ft / 58 m 11,817 ft / 3,602 m 81.00° 72.14° Asphalt 0 ft / 0 m 250 ft / 76 m
07L 304 ft / 93 m 9,877 ft / 3,011 m 81.01° 72.15° Grass 0 ft / 0 m 0 ft / 0 m
25 190 ft / 58 m 11,817 ft / 3,602 m 261.04° 252.18° Asphalt 0 ft / 0 m 225 ft / 69 m
25R 304 ft / 93 m 9,877 ft / 3,011 m 261.05° 252.19° Grass 0 ft / 0 m 0 ft / 0 m

Approach Navaids

Runway Type Ident Frequency Range Bearing (true) Bearing (mag) Slope Elevation
07 Localiser IRO 110.10 MHz 18 nm / 33 km 81.06° 72.19° - 335 ft / 102 m (AMSL)
07 Glidescope IRO 110.10 MHz 10 nm / 19 km 81.02° 72.16° 2.83° 345 ft / 105 m (AMSL)
25 Localiser IKT 108.50 MHz 18 nm / 33 km 261.00° 252.13° - 345 ft / 105 m (AMSL)
25 Glidescope IKT 108.50 MHz 10 nm / 19 km 261.02° 252.16° 2.67° 350 ft / 107 m (AMSL)

Popular Alternatives